sensor_id;sensor_type;location;lat;lon;timestamp;temperature;humidity
16674;DHT22;8450;52.654;10.326;2022-12-07T10:19:20;3.10;99.90
16674;DHT22;8450;52.654;10.326;2022-12-07T10:22:11;3.20;99.90
16674;DHT22;8450;52.654;10.326;2022-12-07T10:24:39;3.20;99.90
16674;DHT22;8450;52.654;10.326;2022-12-07T10:27:21;3.20;99.90
16674;DHT22;8450;52.654;10.326;2022-12-07T10:29:49;3.20;99.90
16674;DHT22;8450;52.654;10.326;2022-12-07T10:34:42;3.30;99.90
16674;DHT22;8450;52.654;10.326;2022-12-07T10:39:43;3.30;99.90
16674;DHT22;8450;52.654;10.326;2022-12-07T10:42:30;3.30;99.90
16674;DHT22;8450;52.654;10.326;2022-12-07T10:45:14;3.30;99.90
16674;DHT22;8450;52.654;10.326;2022-12-07T10:48:19;3.40;99.90
16674;DHT22;8450;52.654;10.326;2022-12-07T10:50:58;3.40;99.90
16674;DHT22;8450;52.654;10.326;2022-12-07T10:53:38;3.40;99.90
16674;DHT22;8450;52.654;10.326;2022-12-07T11:02:08;3.40;99.90
16674;DHT22;8450;52.654;10.326;2022-12-07T11:05:03;3.40;99.90
16674;DHT22;8450;52.654;10.326;2022-12-07T11:07:53;3.40;99.90
16674;DHT22;8450;52.654;10.326;2022-12-07T11:10:44;3.50;99.90
16674;DHT22;8450;52.654;10.326;2022-12-07T11:13:40;3.50;99.90
16674;DHT22;8450;52.654;10.326;2022-12-07T11:17:02;3.50;99.90
16674;DHT22;8450;52.654;10.326;2022-12-07T11:20:08;3.50;99.90
16674;DHT22;8450;52.654;10.326;2022-12-07T11:22:58;3.50;99.90
16674;DHT22;8450;52.654;10.326;2022-12-07T11:25:35;3.50;99.90
16674;DHT22;8450;52.654;10.326;2022-12-07T11:34:04;3.50;99.90
16674;DHT22;8450;52.654;10.326;2022-12-07T11:36:49;3.50;99.90
16674;DHT22;8450;52.654;10.326;2022-12-07T11:39:28;3.50;99.90
16674;DHT22;8450;52.654;10.326;2022-12-07T11:42:06;3.50;99.90
16674;DHT22;8450;52.654;10.326;2022-12-07T11:52:48;3.60;99.90
16674;DHT22;8450;52.654;10.326;2022-12-07T11:57:58;3.70;99.90
16674;DHT22;8450;52.654;10.326;2022-12-07T12:00:27;3.70;99.90
16674;DHT22;8450;52.654;10.326;2022-12-07T12:03:09;3.70;99.90
16674;DHT22;8450;52.654;10.326;2022-12-07T12:05:36;3.70;99.90
16674;DHT22;8450;52.654;10.326;2022-12-07T12:08:17;3.80;99.90
16674;DHT22;8450;52.654;10.326;2022-12-07T12:13:50;3.80;99.90
16674;DHT22;8450;52.654;10.326;2022-12-07T12:21:49;3.90;99.90
16674;DHT22;8450;52.654;10.326;2022-12-07T12:24:23;3.90;99.90
16674;DHT22;8450;52.654;10.326;2022-12-07T12:26:53;3.80;99.90
16674;DHT22;8450;52.654;10.326;2022-12-07T12:29:33;3.80;99.90
16674;DHT22;8450;52.654;10.326;2022-12-07T12:32:17;3.80;99.90
16674;DHT22;8450;52.654;10.326;2022-12-07T12:42:57;3.80;99.90
16674;DHT22;8450;52.654;10.326;2022-12-07T12:45:24;3.80;99.90
16674;DHT22;8450;52.654;10.326;2022-12-07T12:48:01;3.80;99.90
16674;DHT22;8450;52.654;10.326;2022-12-07T12:50:36;3.80;99.90
16674;DHT22;8450;52.654;10.326;2022-12-07T12:53:03;3.80;99.90
16674;DHT22;8450;52.654;10.326;2022-12-07T13:00:47;3.80;99.90
16674;DHT22;8450;52.654;10.326;2022-12-07T13:03:28;3.80;99.90
16674;DHT22;8450;52.654;10.326;2022-12-07T13:06:31;3.80;99.90
16674;DHT22;8450;52.654;10.326;2022-12-07T13:08:59;3.80;99.90
16674;DHT22;8450;52.654;10.326;2022-12-07T13:11:39;3.80;99.90
16674;DHT22;8450;52.654;10.326;2022-12-07T13:25:12;3.80;99.90
16674;DHT22;8450;52.654;10.326;2022-12-07T13:27:48;3.80;99.90
16674;DHT22;8450;52.654;10.326;2022-12-07T13:30:19;3.80;99.90
16674;DHT22;8450;52.654;10.326;2022-12-07T13:32:56;3.80;99.90
16674;DHT22;8450;52.654;10.326;2022-12-07T13:35:31;3.80;99.90
